createdAt,value
2018-03-08T00:01:14.784Z,44.75
2018-03-08T00:03:42.330Z,45.20
2018-03-08T00:06:09.784Z,45.10
2018-03-08T00:08:37.377Z,45.88
2018-03-08T00:11:04.922Z,48.05
2018-03-08T00:13:32.386Z,46.22
2018-03-08T00:15:59.942Z,42.60
2018-03-08T00:18:27.493Z,43.70
2018-03-08T00:20:54.961Z,45.50
2018-03-08T00:23:22.520Z,43.40
2018-03-08T00:25:49.989Z,42.15
2018-03-08T00:28:17.532Z,40.85
2018-03-08T00:30:45.018Z,41.22
2018-03-08T00:33:12.544Z,44.08
2018-03-08T00:35:40.043Z,51.47
2018-03-08T00:38:07.553Z,47.70
2018-03-08T00:40:35.112Z,44.75
2018-03-08T00:43:02.555Z,46.60
2018-03-08T00:45:30.013Z,42.08
2018-03-08T00:47:57.457Z,40.17
2018-03-08T00:50:24.922Z,43.67
2018-03-08T00:52:53.266Z,40.10
2018-03-08T00:55:20.724Z,45.08
2018-03-08T00:57:48.168Z,41.53
2018-03-08T01:00:15.645Z,43.90
2018-03-08T01:02:43.159Z,43.50
2018-03-08T01:05:10.709Z,42.38
2018-03-08T01:07:38.169Z,41.55
2018-03-08T01:10:05.645Z,51.65
2018-03-08T01:12:33.114Z,45.35
2018-03-08T01:15:01.570Z,44.05
2018-03-08T01:17:29.050Z,43.45
2018-03-08T01:19:56.525Z,42.40
2018-03-08T01:22:23.968Z,50.80
2018-03-08T01:24:51.546Z,44.58
2018-03-08T01:27:18.996Z,42.78
2018-03-08T01:29:46.457Z,39.22
2018-03-08T01:32:13.965Z,38.53
2018-03-08T01:34:41.420Z,38.45
2018-03-08T01:37:08.873Z,39.50
2018-03-08T01:39:36.356Z,38.97
2018-03-08T01:42:03.894Z,39.92
2018-03-08T01:44:31.447Z,38.35
2018-03-08T01:46:58.903Z,40.78
2018-03-08T01:49:26.365Z,39.72
2018-03-08T01:54:48.003Z,42.95
2018-03-08T01:57:15.452Z,41.60
2018-03-08T01:59:42.925Z,40.95
2018-03-08T02:02:10.509Z,40.47
2018-03-08T02:04:37.972Z,41.97
2018-03-08T02:07:05.421Z,46.33
2018-03-08T02:09:33.074Z,41.10
2018-03-08T02:12:00.729Z,41.35
2018-03-08T02:14:28.274Z,44.58
2018-03-08T02:16:55.825Z,42.17
2018-03-08T02:19:23.273Z,44.60
2018-03-08T02:21:50.738Z,41.78
2018-03-08T02:24:18.180Z,41.00
2018-03-08T02:26:45.658Z,41.03
2018-03-08T02:29:13.114Z,42.13
2018-03-08T02:31:40.683Z,40.65
2018-03-08T02:34:08.237Z,40.65
2018-03-08T02:36:36.718Z,44.92
2018-03-08T02:39:04.176Z,40.08
2018-03-08T02:41:31.643Z,40.55
2018-03-08T02:43:59.196Z,38.95
2018-03-08T02:46:26.679Z,39.35
2018-03-08T02:48:54.205Z,41.55
2018-03-08T02:51:21.671Z,39.15
2018-03-08T02:53:49.131Z,39.75
2018-03-08T02:56:16.595Z,37.85
2018-03-08T02:58:44.051Z,40.53
2018-03-08T03:01:11.529Z,39.95
2018-03-08T03:03:38.982Z,38.47
2018-03-08T03:06:06.454Z,41.13
2018-03-08T03:08:33.906Z,39.90
2018-03-08T03:11:01.373Z,41.22
2018-03-08T03:13:28.886Z,39.38
2018-03-08T03:15:56.353Z,42.53
2018-03-08T03:18:23.889Z,43.00
2018-03-08T03:20:51.348Z,44.00
2018-03-08T03:23:18.806Z,43.33
2018-03-08T03:25:46.281Z,42.15
2018-03-08T03:28:13.818Z,44.15
2018-03-08T03:30:41.295Z,42.90
2018-03-08T03:33:08.757Z,42.85
2018-03-08T03:35:36.235Z,44.90
2018-03-08T03:38:03.741Z,42.28
2018-03-08T03:40:31.206Z,43.33
2018-03-08T03:42:58.669Z,43.47
2018-03-08T03:45:26.134Z,42.30
2018-03-08T03:47:53.584Z,40.55
2018-03-08T03:50:21.053Z,43.10
2018-03-08T03:52:48.500Z,45.28
2018-03-08T03:55:15.974Z,44.60
2018-03-08T03:57:43.514Z,43.87
2018-03-08T04:00:10.985Z,45.55
2018-03-08T04:02:38.437Z,46.33
2018-03-08T04:05:05.981Z,46.78
2018-03-08T04:07:34.423Z,45.63
2018-03-08T04:10:01.889Z,42.28
2018-03-08T04:12:29.336Z,45.90
2018-03-08T04:14:56.840Z,46.88
2018-03-08T04:17:24.301Z,44.83
2018-03-08T04:19:51.757Z,46.08
2018-03-08T04:22:20.327Z,46.13
2018-03-08T04:24:47.794Z,43.85
2018-03-08T04:27:15.249Z,48.50
2018-03-08T04:29:43.052Z,46.80
2018-03-08T04:32:10.566Z,45.80
2018-03-08T04:34:38.929Z,45.10
2018-03-08T04:37:07.386Z,46.15
2018-03-08T04:39:34.877Z,46.78
2018-03-08T04:42:02.333Z,47.03
2018-03-08T04:44:29.889Z,48.35
2018-03-08T04:46:57.350Z,45.83
2018-03-08T04:49:24.822Z,44.72
2018-03-08T04:51:52.284Z,47.45
2018-03-08T04:54:19.867Z,49.28
2018-03-08T04:56:47.281Z,47.17
2018-03-08T04:59:14.756Z,47.75
2018-03-08T05:01:42.289Z,51.22
2018-03-08T05:04:09.753Z,48.17
2018-03-08T05:06:38.234Z,48.03
2018-03-08T05:09:05.702Z,48.97
2018-03-08T05:11:33.153Z,50.38
2018-03-08T05:14:00.621Z,50.50
2018-03-08T05:16:28.095Z,50.40
2018-03-08T05:18:55.565Z,52.95
2018-03-08T05:21:23.027Z,49.60
2018-03-08T05:23:50.502Z,49.63
2018-03-08T05:26:18.914Z,48.83
2018-03-08T05:28:46.364Z,52.13
2018-03-08T05:31:13.923Z,50.42
2018-03-08T05:33:41.376Z,53.13
2018-03-08T05:36:08.841Z,51.72
2018-03-08T05:38:36.510Z,51.95
2018-03-08T05:41:04.960Z,55.58
2018-03-08T05:43:32.447Z,53.95
2018-03-08T05:45:59.923Z,53.63
2018-03-08T05:48:28.374Z,53.83
2018-03-08T05:50:55.879Z,58.13
2018-03-08T05:53:24.341Z,51.20
2018-03-08T05:55:51.872Z,55.92
2018-03-08T05:58:19.338Z,53.97
2018-03-08T06:00:47.853Z,55.95
2018-03-08T06:03:15.293Z,52.88
2018-03-08T06:05:42.753Z,55.42
2018-03-08T06:08:11.185Z,52.28
2018-03-08T06:10:38.640Z,50.33
2018-03-08T06:13:06.105Z,49.72
2018-03-08T06:15:33.640Z,53.38
2018-03-08T06:18:01.122Z,50.97
2018-03-08T06:20:28.580Z,51.72
2018-03-08T06:22:56.140Z,55.20
2018-03-08T06:25:23.596Z,53.47
2018-03-08T06:27:51.045Z,51.40
2018-03-08T06:30:18.509Z,55.25
2018-03-08T06:32:46.074Z,53.90
2018-03-08T06:35:13.546Z,52.00
2018-03-08T06:37:41.045Z,49.33
2018-03-08T06:40:08.553Z,52.28
2018-03-08T06:42:36.008Z,54.22
2018-03-08T06:45:04.478Z,54.28
2018-03-08T06:47:32.041Z,54.83
2018-03-08T06:49:59.521Z,53.45
2018-03-08T06:52:27.064Z,57.78
2018-03-08T06:54:54.545Z,55.22
2018-03-08T06:57:22.002Z,56.85
2018-03-08T06:59:49.469Z,57.15
2018-03-08T07:02:17.021Z,59.22
2018-03-08T07:04:44.495Z,53.85
2018-03-08T07:07:12.907Z,55.38
2018-03-08T07:09:40.473Z,55.03
2018-03-08T07:12:07.956Z,57.92
2018-03-08T07:14:36.438Z,59.53
2018-03-08T07:17:03.885Z,58.08
2018-03-08T07:19:31.362Z,60.65
2018-03-08T07:21:59.801Z,63.00
2018-03-08T07:24:27.278Z,63.58
2018-03-08T07:26:54.740Z,60.25
2018-03-08T07:29:22.205Z,57.15
2018-03-08T07:31:49.653Z,62.58
2018-03-08T07:34:18.140Z,58.17
2018-03-08T07:36:45.591Z,60.33
2018-03-08T07:39:13.161Z,60.40
2018-03-08T07:41:40.713Z,61.75
2018-03-08T07:44:08.181Z,62.67
2018-03-08T07:46:35.633Z,61.13
2018-03-08T07:49:03.106Z,66.12
2018-03-08T07:51:30.568Z,65.37
2018-03-08T07:53:58.044Z,70.22
2018-03-08T07:56:25.501Z,69.85
2018-03-08T07:58:53.926Z,69.70
2018-03-08T08:01:22.389Z,65.43
2018-03-08T08:03:49.861Z,76.62
2018-03-08T08:06:29.033Z,68.87
2018-03-08T08:09:08.342Z,68.37
2018-03-08T08:11:35.797Z,69.93
2018-03-08T08:14:05.191Z,71.05
2018-03-08T08:16:32.659Z,68.97
2018-03-08T08:19:00.133Z,76.72
2018-03-08T08:21:27.582Z,76.50
2018-03-08T08:23:55.048Z,78.25
2018-03-08T08:26:23.480Z,77.85
2018-03-08T08:28:50.963Z,72.37
2018-03-08T08:31:19.406Z,78.05
2018-03-08T08:33:46.866Z,74.78
2018-03-08T08:36:16.261Z,76.15
2018-03-08T08:38:43.718Z,80.95
2018-03-08T08:41:12.141Z,80.40
2018-03-08T08:43:39.598Z,84.85
2018-03-08T08:46:07.072Z,87.10
2018-03-08T08:48:34.574Z,90.18
2018-03-08T08:51:02.073Z,82.97
2018-03-08T08:53:29.532Z,89.65
2018-03-08T08:55:57.001Z,89.97
2018-03-08T08:58:24.458Z,91.03
2018-03-08T09:00:51.926Z,90.47
2018-03-08T09:03:19.373Z,85.12
2018-03-08T09:05:46.842Z,88.95
2018-03-08T09:08:14.473Z,89.75
2018-03-08T09:10:41.945Z,89.68
2018-03-08T09:13:09.403Z,85.00
2018-03-08T09:15:36.868Z,79.75
2018-03-08T09:18:05.237Z,78.00
2018-03-08T09:20:32.792Z,74.65
2018-03-08T09:23:00.242Z,67.28
2018-03-08T09:25:27.710Z,65.70
2018-03-08T09:27:55.157Z,56.47
2018-03-08T09:30:22.634Z,62.10
2018-03-08T09:32:50.089Z,58.00
2018-03-08T09:35:17.565Z,59.70
2018-03-08T09:37:45.087Z,55.28
2018-03-08T09:40:12.554Z,58.67
2018-03-08T09:42:41.014Z,53.50
2018-03-08T09:45:08.492Z,53.80
2018-03-08T09:47:35.946Z,56.35
2018-03-08T09:50:03.462Z,54.67
2018-03-08T09:52:30.912Z,53.45
2018-03-08T09:54:58.417Z,47.67
2018-03-08T09:57:25.880Z,48.97
2018-03-08T09:59:53.413Z,46.53
2018-03-08T10:02:20.970Z,40.85
2018-03-08T10:04:48.431Z,44.55
2018-03-08T10:07:15.884Z,38.67
2018-03-08T10:09:43.376Z,39.55
2018-03-08T10:12:10.825Z,43.30
2018-03-08T10:14:38.313Z,39.20
2018-03-08T10:17:05.832Z,40.78
2018-03-08T10:19:33.340Z,35.92
2018-03-08T10:22:00.791Z,37.97
2018-03-08T10:24:28.260Z,36.47
2018-03-08T10:26:55.701Z,38.17
2018-03-08T10:29:23.180Z,32.65
2018-03-08T10:31:50.668Z,35.60
2018-03-08T10:34:18.137Z,32.20
2018-03-08T10:36:45.698Z,32.42
2018-03-08T10:44:08.205Z,35.20
2018-03-08T10:46:35.654Z,35.53
2018-03-08T10:49:03.134Z,38.58
2018-03-08T10:51:30.591Z,36.72
2018-03-08T10:54:00.081Z,40.12
2018-03-08T10:56:27.581Z,34.97
2018-03-08T10:58:55.028Z,36.20
2018-03-08T11:01:26.389Z,39.05
2018-03-08T11:03:55.588Z,38.53
2018-03-08T11:06:34.797Z,37.50
2018-03-08T11:09:02.261Z,38.70
2018-03-08T11:11:29.729Z,37.67
2018-03-08T11:13:57.254Z,40.60
2018-03-08T11:16:24.742Z,40.12
2018-03-08T11:18:54.219Z,39.97
2018-03-08T11:21:21.722Z,40.25
2018-03-08T11:23:51.166Z,40.00
2018-03-08T11:26:18.733Z,41.63
2018-03-08T11:28:49.971Z,42.95
2018-03-08T11:31:17.438Z,44.20
2018-03-08T11:33:44.931Z,41.13
2018-03-08T11:36:12.444Z,46.03
2018-03-08T11:38:39.898Z,43.10
2018-03-08T11:41:07.365Z,37.95
2018-03-08T11:43:34.829Z,45.35
2018-03-08T11:46:03.290Z,44.25
2018-03-08T11:48:30.798Z,43.10
2018-03-08T11:50:58.277Z,47.35
2018-03-08T11:53:26.675Z,44.10
2018-03-08T11:55:54.190Z,41.90
2018-03-08T11:58:21.710Z,44.05
2018-03-08T12:00:49.178Z,43.38
2018-03-08T12:03:17.627Z,42.30
2018-03-08T12:05:45.085Z,45.80
2018-03-08T12:08:12.552Z,44.83
2018-03-08T12:10:40.995Z,44.58
2018-03-08T12:13:09.393Z,44.58
2018-03-08T12:15:40.757Z,40.92
2018-03-08T12:18:08.225Z,44.55
2018-03-08T12:20:35.759Z,43.10
2018-03-08T12:23:03.288Z,39.85
2018-03-08T12:25:30.855Z,42.25
2018-03-08T12:27:58.367Z,38.35
2018-03-08T12:30:26.813Z,36.55
2018-03-08T12:32:54.283Z,39.30
2018-03-08T12:35:21.725Z,37.65
2018-03-08T12:37:49.189Z,33.17
2018-03-08T12:40:16.786Z,32.75
2018-03-08T12:42:44.289Z,36.55
2018-03-08T12:45:12.723Z,33.88
2018-03-08T12:47:40.180Z,34.92
2018-03-08T12:50:07.825Z,28.87
2018-03-08T12:52:35.375Z,28.12
2018-03-08T12:55:02.846Z,29.55
2018-03-08T12:57:30.305Z,28.83
2018-03-08T12:59:57.822Z,31.67
2018-03-08T13:02:25.319Z,29.52
2018-03-08T13:04:52.792Z,29.65
2018-03-08T13:07:21.264Z,30.75
2018-03-08T13:09:48.710Z,25.27
2018-03-08T13:12:18.145Z,27.90
2018-03-08T13:14:45.614Z,28.12
2018-03-08T13:17:13.186Z,27.37
2018-03-08T13:19:40.610Z,27.20
2018-03-08T13:22:09.046Z,23.35
2018-03-08T13:24:36.517Z,25.08
2018-03-08T13:27:05.162Z,22.90
2018-03-08T13:29:32.665Z,25.48
2018-03-08T13:32:01.126Z,25.55
2018-03-08T13:34:29.599Z,23.95
2018-03-08T13:36:58.004Z,22.50
2018-03-08T13:39:26.479Z,21.33
2018-03-08T13:41:53.942Z,22.90
2018-03-08T13:44:25.069Z,21.27
2018-03-08T13:46:53.546Z,22.20
2018-03-08T13:49:33.897Z,22.53
2018-03-08T13:52:01.389Z,23.07
2018-03-08T13:54:28.846Z,22.47
2018-03-08T13:56:58.249Z,23.67
2018-03-08T13:59:26.693Z,25.30
2018-03-08T14:01:54.189Z,22.70
2018-03-08T14:04:22.547Z,21.50
2018-03-08T14:06:51.005Z,21.03
2018-03-08T14:09:18.577Z,20.67
2018-03-08T14:11:46.136Z,21.37
2018-03-08T14:14:13.609Z,24.23
2018-03-08T14:16:41.077Z,21.80
2018-03-08T14:19:08.521Z,22.80
2018-03-08T14:21:35.994Z,25.00
2018-03-08T14:24:03.449Z,24.27
2018-03-08T14:26:30.917Z,24.63
2018-03-08T14:28:58.372Z,22.57
2018-03-08T14:31:25.856Z,23.60
2018-03-08T14:33:54.227Z,25.47
2018-03-08T14:36:21.693Z,24.87
2018-03-08T14:38:52.565Z,25.77
2018-03-08T14:41:20.038Z,25.80
2018-03-08T14:43:47.488Z,26.77
2018-03-08T14:46:14.969Z,28.40
2018-03-08T14:48:43.422Z,26.53
2018-03-08T14:51:11.086Z,27.17
2018-03-08T14:53:40.586Z,26.00
2018-03-08T14:56:08.141Z,26.00
2018-03-08T14:58:35.612Z,23.37
2018-03-08T15:01:03.090Z,23.10
2018-03-08T15:03:30.585Z,25.07
2018-03-08T15:05:58.034Z,23.20
2018-03-08T15:08:26.436Z,23.83
2018-03-08T15:10:53.893Z,23.13
2018-03-08T15:13:22.261Z,22.20
2018-03-08T15:15:49.709Z,23.40
2018-03-08T15:18:17.189Z,22.83
2018-03-08T15:20:45.645Z,23.40
2018-03-08T15:23:15.070Z,22.40
2018-03-08T15:25:43.541Z,23.40
2018-03-08T15:28:11.927Z,20.93
2018-03-08T15:30:39.390Z,22.33
2018-03-08T15:33:06.857Z,22.63
2018-03-08T15:35:34.306Z,20.90
2018-03-08T15:38:01.781Z,22.90
2018-03-08T15:40:29.244Z,23.97
2018-03-08T15:42:56.714Z,21.73
2018-03-08T15:45:25.070Z,23.67
2018-03-08T15:47:52.622Z,23.83
2018-03-08T15:50:20.117Z,23.50
2018-03-08T15:52:47.554Z,24.93
2018-03-08T15:55:15.989Z,23.50
2018-03-08T15:57:43.565Z,23.62
2018-03-08T16:00:11.015Z,22.87
2018-03-08T16:02:38.477Z,22.90
2018-03-08T16:05:05.938Z,23.55
2018-03-08T16:10:36.367Z,20.75
2018-03-08T16:13:03.966Z,22.77
2018-03-08T16:15:31.434Z,22.50
2018-03-08T16:17:58.911Z,21.98
2018-03-08T16:20:26.364Z,20.25
2018-03-08T16:22:53.840Z,20.83
2018-03-08T16:25:21.316Z,23.05
2018-03-08T16:27:48.786Z,24.20
2018-03-08T16:30:16.261Z,23.10
2018-03-08T16:32:43.803Z,22.45
2018-03-08T16:35:11.320Z,22.75
2018-03-08T16:37:39.707Z,23.25
2018-03-08T16:40:07.195Z,28.02
2018-03-08T16:42:34.651Z,27.62
2018-03-08T16:45:02.118Z,24.95
2018-03-08T16:47:29.585Z,27.60
2018-03-08T16:49:57.126Z,25.88
2018-03-08T16:52:24.572Z,28.33
2018-03-08T16:54:52.120Z,28.75
2018-03-08T16:57:19.578Z,29.42
2018-03-08T16:59:47.053Z,27.15
2018-03-08T17:02:14.502Z,28.95
2018-03-08T17:04:41.969Z,27.52
2018-03-08T17:07:09.439Z,27.20
2018-03-08T17:09:37.045Z,30.10
2018-03-08T17:12:05.443Z,28.12
2018-03-08T17:14:33.863Z,28.35
2018-03-08T17:17:02.301Z,25.73
2018-03-08T17:19:29.786Z,26.00
2018-03-08T17:21:59.697Z,24.33
2018-03-08T17:24:27.214Z,25.17
2018-03-08T17:26:54.769Z,24.67
2018-03-08T17:29:22.245Z,25.02
2018-03-08T17:31:49.698Z,26.52
2018-03-08T17:34:17.169Z,26.30
2018-03-08T17:36:44.627Z,27.42
2018-03-08T17:39:12.097Z,25.05
2018-03-08T17:41:39.550Z,24.95
2018-03-08T17:44:07.022Z,23.42
2018-03-08T17:46:35.413Z,24.52
2018-03-08T17:49:02.946Z,23.77
2018-03-08T17:51:30.431Z,23.95
2018-03-08T17:53:57.912Z,23.38
2018-03-08T17:56:25.379Z,22.73
2018-03-08T17:58:53.844Z,24.55
2018-03-08T18:01:21.308Z,19.87
2018-03-08T18:03:48.768Z,22.00
2018-03-08T18:06:16.348Z,20.05
2018-03-08T18:08:43.838Z,19.60
2018-03-08T18:11:11.295Z,19.17
2018-03-08T18:13:38.768Z,15.95
2018-03-08T18:16:06.219Z,12.30
2018-03-08T18:18:33.753Z,10.57
2018-03-08T18:21:01.194Z,10.55
2018-03-08T18:23:28.666Z,9.45
2018-03-08T18:25:56.225Z,10.57
2018-03-08T18:28:23.896Z,10.77
2018-03-08T18:30:51.360Z,9.45
2018-03-08T18:33:18.838Z,10.10
2018-03-08T18:35:46.363Z,10.60
2018-03-08T18:38:13.833Z,10.85
2018-03-08T18:40:41.329Z,9.23
2018-03-08T18:43:08.789Z,10.35
2018-03-08T18:45:36.228Z,9.40
2018-03-08T18:48:03.778Z,9.93
2018-03-08T18:50:31.271Z,8.75
2018-03-08T18:52:58.814Z,9.77
2018-03-08T18:55:26.333Z,10.25
2018-03-08T18:57:53.829Z,11.57
2018-03-08T19:00:21.329Z,11.70
2018-03-08T19:02:49.180Z,13.02
2018-03-08T19:05:16.698Z,12.37
2018-03-08T19:07:44.218Z,12.07
2018-03-08T19:10:11.709Z,12.50
2018-03-08T19:12:40.113Z,12.68
2018-03-08T19:15:07.589Z,14.00
2018-03-08T19:17:35.106Z,12.68
2018-03-08T19:20:02.581Z,12.70
2018-03-08T19:22:31.970Z,14.68
2018-03-08T19:24:59.409Z,14.13
2018-03-08T19:27:26.869Z,12.82
2018-03-08T19:29:57.806Z,12.37
2018-03-08T19:32:25.310Z,11.80
2018-03-08T19:34:52.777Z,14.95
2018-03-08T19:37:20.233Z,14.87
2018-03-08T19:39:47.728Z,12.13
2018-03-08T19:42:15.206Z,10.23
2018-03-08T19:44:42.728Z,11.75
2018-03-08T19:47:10.153Z,11.25
2018-03-08T19:49:37.629Z,10.05
2018-03-08T19:52:05.093Z,11.23
2018-03-08T19:54:32.562Z,10.68
2018-03-08T19:57:00.020Z,11.75
2018-03-08T19:59:27.483Z,11.82
2018-03-08T20:01:54.939Z,12.48
2018-03-08T20:04:22.508Z,12.05
2018-03-08T20:06:49.984Z,11.95
2018-03-08T20:09:17.574Z,10.93
2018-03-08T20:11:45.989Z,11.75
2018-03-08T20:14:14.419Z,12.35
2018-03-08T20:16:41.874Z,12.07
2018-03-08T20:19:09.346Z,13.38
2018-03-08T20:21:36.829Z,13.85
2018-03-08T20:24:04.297Z,13.13
2018-03-08T20:26:31.745Z,14.75
2018-03-08T20:28:59.209Z,18.75
2018-03-08T20:31:27.598Z,16.58
2018-03-08T20:33:55.062Z,18.15
2018-03-08T20:36:22.505Z,15.20
2018-03-08T20:38:49.981Z,15.43
2018-03-08T20:41:17.426Z,15.88
2018-03-08T20:43:44.924Z,15.52
2018-03-08T20:46:12.397Z,14.45
2018-03-08T20:48:39.886Z,16.23
2018-03-08T20:51:08.266Z,15.60
2018-03-08T20:53:35.747Z,16.58
2018-03-08T20:56:03.196Z,17.27
2018-03-08T20:58:30.777Z,13.90
2018-03-08T21:00:58.250Z,15.88
2018-03-08T21:03:26.507Z,19.35
2018-03-08T21:05:54.217Z,24.08
2018-03-08T21:08:21.690Z,20.00
2018-03-08T21:10:49.136Z,20.23
2018-03-08T21:13:16.600Z,23.05
2018-03-08T21:15:44.148Z,20.83
2018-03-08T21:18:11.666Z,24.55
2018-03-08T21:20:39.130Z,20.25
2018-03-08T21:23:06.578Z,24.83
2018-03-08T21:25:34.122Z,27.67
2018-03-08T21:28:01.564Z,23.35
2018-03-08T21:30:29.027Z,17.67
2018-03-08T21:32:57.478Z,17.67
2018-03-08T21:35:24.962Z,18.10
2018-03-08T21:37:55.543Z,20.95
2018-03-08T21:40:23.002Z,17.48
2018-03-08T21:42:50.455Z,20.05
2018-03-08T21:45:17.913Z,20.58
2018-03-08T21:47:45.357Z,18.60
2018-03-08T21:50:12.817Z,20.35
2018-03-08T21:52:40.274Z,22.40
2018-03-08T21:55:07.773Z,20.65
2018-03-08T21:57:37.129Z,21.02
2018-03-08T22:00:04.600Z,21.15
2018-03-08T22:02:32.054Z,20.95
2018-03-08T22:04:59.512Z,21.85
2018-03-08T22:07:26.979Z,19.12
2018-03-08T22:09:54.450Z,22.33
2018-03-08T22:12:21.894Z,19.17
2018-03-08T22:14:49.406Z,20.88
2018-03-08T22:17:16.855Z,20.60
2018-03-08T22:19:44.796Z,18.83
2018-03-08T22:22:12.241Z,26.60
2018-03-08T22:24:39.701Z,21.62
2018-03-08T22:27:07.202Z,20.37
2018-03-08T22:29:34.668Z,20.55
2018-03-08T22:32:02.115Z,19.35
2018-03-08T22:34:29.670Z,18.02
2018-03-08T22:36:57.113Z,18.15
2018-03-08T22:39:24.574Z,19.05
2018-03-08T22:41:52.026Z,17.87
2018-03-08T22:44:19.493Z,15.30
2018-03-08T22:46:46.937Z,17.02
2018-03-08T22:49:14.504Z,15.02
2018-03-08T22:51:41.964Z,17.70
2018-03-08T22:54:09.409Z,14.30
2018-03-08T22:56:36.868Z,15.23
2018-03-08T22:59:04.308Z,15.77
2018-03-08T23:04:38.757Z,13.75
2018-03-08T23:07:06.209Z,13.90
2018-03-08T23:09:33.654Z,12.40
2018-03-08T23:12:01.121Z,13.05
2018-03-08T23:14:28.569Z,13.27
2018-03-08T23:16:56.028Z,12.32
2018-03-08T23:19:23.486Z,12.07
2018-03-08T23:21:50.956Z,12.52
2018-03-08T23:24:18.400Z,13.52
2018-03-08T23:26:45.903Z,13.57
2018-03-08T23:29:14.373Z,13.32
2018-03-08T23:31:41.838Z,13.82
2018-03-08T23:34:09.293Z,12.98
2018-03-08T23:36:36.760Z,13.57
2018-03-08T23:39:04.217Z,14.57
2018-03-08T23:41:31.689Z,12.32
2018-03-08T23:43:59.173Z,13.85
2018-03-08T23:46:26.624Z,13.10
2018-03-08T23:48:54.125Z,14.73
2018-03-08T23:51:21.585Z,14.00
2018-03-08T23:53:49.044Z,14.40
2018-03-08T23:56:16.513Z,14.82
2018-03-08T23:58:43.980Z,15.00
